sensor_id;sensor_type;location;lat;lon;timestamp;temperature;humidity
67194;DHT22;54121;53.508;49.422;2022-11-15T00:00:49;-1.40;56.40
67194;DHT22;54121;53.508;49.422;2022-11-15T00:03:17;-1.40;56.50
67194;DHT22;54121;53.508;49.422;2022-11-15T00:05:44;-1.30;56.90
67194;DHT22;54121;53.508;49.422;2022-11-15T00:08:11;-1.50;56.10
67194;DHT22;54121;53.508;49.422;2022-11-15T00:10:38;-1.40;56.10
67194;DHT22;54121;53.508;49.422;2022-11-15T00:13:12;-1.40;56.20
67194;DHT22;54121;53.508;49.422;2022-11-15T00:15:40;-1.50;55.00
67194;DHT22;54121;53.508;49.422;2022-11-15T00:18:12;-1.40;55.00
67194;DHT22;54121;53.508;49.422;2022-11-15T00:20:39;-1.50;54.90
67194;DHT22;54121;53.508;49.422;2022-11-15T00:23:06;-1.50;54.50
67194;DHT22;54121;53.508;49.422;2022-11-15T00:25:33;-0.30;55.10
67194;DHT22;54121;53.508;49.422;2022-11-15T00:28:00;-1.40;54.40
67194;DHT22;54121;53.508;49.422;2022-11-15T00:30:27;-1.40;54.00
67194;DHT22;54121;53.508;49.422;2022-11-15T00:32:54;-1.30;53.80
67194;DHT22;54121;53.508;49.422;2022-11-15T00:35:21;-1.30;53.30
67194;DHT22;54121;53.508;49.422;2022-11-15T00:37:48;-1.50;53.40
67194;DHT22;54121;53.508;49.422;2022-11-15T00:40:15;-1.60;53.80
67194;DHT22;54121;53.508;49.422;2022-11-15T00:42:41;-1.60;54.00
67194;DHT22;54121;53.508;49.422;2022-11-15T00:45:09;-1.50;53.40
67194;DHT22;54121;53.508;49.422;2022-11-15T00:47:35;-1.30;53.90
67194;DHT22;54121;53.508;49.422;2022-11-15T00:50:02;-1.40;53.50
67194;DHT22;54121;53.508;49.422;2022-11-15T00:52:29;-1.50;53.40
67194;DHT22;54121;53.508;49.422;2022-11-15T00:54:56;-1.50;53.40
67194;DHT22;54121;53.508;49.422;2022-11-15T00:57:22;-1.60;54.10
67194;DHT22;54121;53.508;49.422;2022-11-15T00:59:49;-1.70;54.70
67194;DHT22;54121;53.508;49.422;2022-11-15T01:02:15;-1.60;55.10
67194;DHT22;54121;53.508;49.422;2022-11-15T01:04:42;-1.60;54.90
67194;DHT22;54121;53.508;49.422;2022-11-15T01:07:08;-1.60;54.90
67194;DHT22;54121;53.508;49.422;2022-11-15T01:09:35;-1.60;54.40
67194;DHT22;54121;53.508;49.422;2022-11-15T01:12:01;-1.60;54.80
67194;DHT22;54121;53.508;49.422;2022-11-15T01:14:28;-1.60;54.70
67194;DHT22;54121;53.508;49.422;2022-11-15T01:16:54;-1.60;55.00
67194;DHT22;54121;53.508;49.422;2022-11-15T01:19:21;-1.50;56.40
67194;DHT22;54121;53.508;49.422;2022-11-15T01:21:51;-1.50;56.40
67194;DHT22;54121;53.508;49.422;2022-11-15T01:24:17;-1.40;56.30
67194;DHT22;54121;53.508;49.422;2022-11-15T01:26:44;-1.40;56.70
67194;DHT22;54121;53.508;49.422;2022-11-15T01:29:10;-1.40;56.90
67194;DHT22;54121;53.508;49.422;2022-11-15T01:31:37;-1.30;57.20
67194;DHT22;54121;53.508;49.422;2022-11-15T01:34:04;-1.40;57.40
67194;DHT22;54121;53.508;49.422;2022-11-15T01:36:30;-1.40;58.30
67194;DHT22;54121;53.508;49.422;2022-11-15T01:38:58;-1.50;59.90
67194;DHT22;54121;53.508;49.422;2022-11-15T01:41:27;-1.50;60.70
67194;DHT22;54121;53.508;49.422;2022-11-15T01:43:56;-1.50;60.40
67194;DHT22;54121;53.508;49.422;2022-11-15T01:46:33;-1.50;60.20
67194;DHT22;54121;53.508;49.422;2022-11-15T01:49:03;-1.50;59.10
67194;DHT22;54121;53.508;49.422;2022-11-15T01:51:33;-1.50;58.60
67194;DHT22;54121;53.508;49.422;2022-11-15T01:54:06;-1.50;57.30
67194;DHT22;54121;53.508;49.422;2022-11-15T01:57:01;-1.50;56.10
67194;DHT22;54121;53.508;49.422;2022-11-15T01:59:25;-1.50;55.70
67194;DHT22;54121;53.508;49.422;2022-11-15T02:01:52;-1.40;56.00
67194;DHT22;54121;53.508;49.422;2022-11-15T02:04:30;-1.50;56.20
67194;DHT22;54121;53.508;49.422;2022-11-15T02:06:58;-1.40;57.10
67194;DHT22;54121;53.508;49.422;2022-11-15T02:09:24;-1.30;56.20
67194;DHT22;54121;53.508;49.422;2022-11-15T02:11:52;-1.40;56.50
67194;DHT22;54121;53.508;49.422;2022-11-15T02:14:20;-1.60;57.20
67194;DHT22;54121;53.508;49.422;2022-11-15T02:20:17;-1.60;57.10
67194;DHT22;54121;53.508;49.422;2022-11-15T02:26:04;-1.50;56.10
67194;DHT22;54121;53.508;49.422;2022-11-15T02:31:55;-1.40;56.20
67194;DHT22;54121;53.508;49.422;2022-11-15T02:37:11;-1.30;55.30
67194;DHT22;54121;53.508;49.422;2022-11-15T02:39:59;-1.30;54.90
67194;DHT22;54121;53.508;49.422;2022-11-15T02:42:30;-1.40;54.70
67194;DHT22;54121;53.508;49.422;2022-11-15T02:45:27;-1.50;55.30
67194;DHT22;54121;53.508;49.422;2022-11-15T02:47:56;-1.40;55.40
67194;DHT22;54121;53.508;49.422;2022-11-15T02:50:27;-1.30;55.00
67194;DHT22;54121;53.508;49.422;2022-11-15T02:52:54;-1.40;54.70
67194;DHT22;54121;53.508;49.422;2022-11-15T02:55:33;-1.40;54.50
67194;DHT22;54121;53.508;49.422;2022-11-15T02:58:19;-1.20;54.80
67194;DHT22;54121;53.508;49.422;2022-11-15T03:06:33;-1.30;55.30
67194;DHT22;54121;53.508;49.422;2022-11-15T03:11:46;-1.30;56.70
67194;DHT22;54121;53.508;49.422;2022-11-15T03:17:42;-1.10;57.70
67194;DHT22;54121;53.508;49.422;2022-11-15T03:20:03;-1.40;57.30
67194;DHT22;54121;53.508;49.422;2022-11-15T03:22:35;-1.40;57.00
67194;DHT22;54121;53.508;49.422;2022-11-15T03:25:05;-1.40;56.70
67194;DHT22;54121;53.508;49.422;2022-11-15T03:27:39;-1.40;56.60
67194;DHT22;54121;53.508;49.422;2022-11-15T03:30:08;-1.30;56.60
67194;DHT22;54121;53.508;49.422;2022-11-15T03:32:39;-1.30;56.40
67194;DHT22;54121;53.508;49.422;2022-11-15T03:35:18;-1.20;57.20
67194;DHT22;54121;53.508;49.422;2022-11-15T03:40:27;-1.20;63.60
67194;DHT22;54121;53.508;49.422;2022-11-15T03:46:13;-1.50;62.80
67194;DHT22;54121;53.508;49.422;2022-11-15T03:48:44;-1.60;60.60
67194;DHT22;54121;53.508;49.422;2022-11-15T03:51:13;-1.50;59.00
67194;DHT22;54121;53.508;49.422;2022-11-15T03:53:41;-1.50;57.30
67194;DHT22;54121;53.508;49.422;2022-11-15T03:56:08;-1.30;57.70
67194;DHT22;54121;53.508;49.422;2022-11-15T03:58:34;-1.30;58.70
67194;DHT22;54121;53.508;49.422;2022-11-15T04:01:01;-1.40;59.60
67194;DHT22;54121;53.508;49.422;2022-11-15T04:03:27;-1.40;60.10
67194;DHT22;54121;53.508;49.422;2022-11-15T04:05:54;-1.10;60.20
67194;DHT22;54121;53.508;49.422;2022-11-15T04:08:20;-0.90;59.90
67194;DHT22;54121;53.508;49.422;2022-11-15T04:10:49;-0.80;59.20
67194;DHT22;54121;53.508;49.422;2022-11-15T04:13:16;-0.60;58.40
67194;DHT22;54121;53.508;49.422;2022-11-15T04:15:42;-0.20;57.30
67194;DHT22;54121;53.508;49.422;2022-11-15T04:18:08;-0.10;55.70
67194;DHT22;54121;53.508;49.422;2022-11-15T04:20:35;0.00;55.10
67194;DHT22;54121;53.508;49.422;2022-11-15T04:23:22;0.10;54.20
67194;DHT22;54121;53.508;49.422;2022-11-15T04:26:10;0.30;53.00
67194;DHT22;54121;53.508;49.422;2022-11-15T04:28:37;0.40;53.30
67194;DHT22;54121;53.508;49.422;2022-11-15T04:31:26;0.60;52.70
67194;DHT22;54121;53.508;49.422;2022-11-15T04:33:53;0.80;51.70
67194;DHT22;54121;53.508;49.422;2022-11-15T04:36:21;0.90;52.20
67194;DHT22;54121;53.508;49.422;2022-11-15T04:39:26;0.90;51.80
67194;DHT22;54121;53.508;49.422;2022-11-15T04:41:52;1.00;52.10
67194;DHT22;54121;53.508;49.422;2022-11-15T04:44:19;1.20;52.50
67194;DHT22;54121;53.508;49.422;2022-11-15T04:46:45;1.60;50.80
67194;DHT22;54121;53.508;49.422;2022-11-15T04:49:12;1.60;50.10
67194;DHT22;54121;53.508;49.422;2022-11-15T04:51:38;2.10;49.20
67194;DHT22;54121;53.508;49.422;2022-11-15T04:54:04;2.10;46.30
67194;DHT22;54121;53.508;49.422;2022-11-15T04:56:31;1.80;45.40
67194;DHT22;54121;53.508;49.422;2022-11-15T04:58:58;2.10;45.90
67194;DHT22;54121;53.508;49.422;2022-11-15T05:01:24;2.30;44.90
67194;DHT22;54121;53.508;49.422;2022-11-15T05:03:51;2.20;44.20
67194;DHT22;54121;53.508;49.422;2022-11-15T05:06:36;2.30;43.60
67194;DHT22;54121;53.508;49.422;2022-11-15T05:09:02;2.30;43.30
67194;DHT22;54121;53.508;49.422;2022-11-15T05:11:29;3.60;44.30
67194;DHT22;54121;53.508;49.422;2022-11-15T05:13:56;2.10;43.70
67194;DHT22;54121;53.508;49.422;2022-11-15T05:16:23;2.20;43.70
67194;DHT22;54121;53.508;49.422;2022-11-15T05:18:53;2.30;43.40
67194;DHT22;54121;53.508;49.422;2022-11-15T05:21:20;2.40;43.20
67194;DHT22;54121;53.508;49.422;2022-11-15T05:23:47;2.30;43.00
67194;DHT22;54121;53.508;49.422;2022-11-15T05:26:15;2.10;43.20
67194;DHT22;54121;53.508;49.422;2022-11-15T05:28:43;2.10;43.80
67194;DHT22;54121;53.508;49.422;2022-11-15T05:31:15;2.30;43.10
67194;DHT22;54121;53.508;49.422;2022-11-15T05:33:42;2.30;42.60
67194;DHT22;54121;53.508;49.422;2022-11-15T05:38:36;2.30;43.40
67194;DHT22;54121;53.508;49.422;2022-11-15T05:41:04;2.40;42.50
67194;DHT22;54121;53.508;49.422;2022-11-15T05:43:33;2.60;41.90
67194;DHT22;54121;53.508;49.422;2022-11-15T05:46:03;2.70;41.30
67194;DHT22;54121;53.508;49.422;2022-11-15T05:48:31;3.00;41.60
67194;DHT22;54121;53.508;49.422;2022-11-15T05:50:58;3.10;41.30
67194;DHT22;54121;53.508;49.422;2022-11-15T05:53:26;3.30;40.80
67194;DHT22;54121;53.508;49.422;2022-11-15T05:55:53;3.70;39.80
67194;DHT22;54121;53.508;49.422;2022-11-15T05:58:20;3.50;38.70
67194;DHT22;54121;53.508;49.422;2022-11-15T06:00:47;3.70;39.60
67194;DHT22;54121;53.508;49.422;2022-11-15T06:03:13;3.80;40.60
67194;DHT22;54121;53.508;49.422;2022-11-15T06:05:42;3.70;40.90
67194;DHT22;54121;53.508;49.422;2022-11-15T06:08:09;3.90;41.50
67194;DHT22;54121;53.508;49.422;2022-11-15T06:10:35;3.90;41.20
67194;DHT22;54121;53.508;49.422;2022-11-15T06:13:03;4.00;41.80
67194;DHT22;54121;53.508;49.422;2022-11-15T06:15:32;3.70;40.30
67194;DHT22;54121;53.508;49.422;2022-11-15T06:18:00;3.70;40.40
67194;DHT22;54121;53.508;49.422;2022-11-15T06:20:28;3.70;40.50
67194;DHT22;54121;53.508;49.422;2022-11-15T06:22:59;3.80;39.20
67194;DHT22;54121;53.508;49.422;2022-11-15T06:25:27;4.00;39.10
67194;DHT22;54121;53.508;49.422;2022-11-15T06:27:56;3.90;38.90
67194;DHT22;54121;53.508;49.422;2022-11-15T06:30:24;3.90;38.80
67194;DHT22;54121;53.508;49.422;2022-11-15T06:32:51;4.10;38.40
67194;DHT22;54121;53.508;49.422;2022-11-15T06:35:18;4.10;37.60
67194;DHT22;54121;53.508;49.422;2022-11-15T06:37:44;3.90;37.10
67194;DHT22;54121;53.508;49.422;2022-11-15T06:40:11;3.60;37.80
67194;DHT22;54121;53.508;49.422;2022-11-15T06:42:38;3.90;36.90
67194;DHT22;54121;53.508;49.422;2022-11-15T06:45:04;3.90;35.60
67194;DHT22;54121;53.508;49.422;2022-11-15T06:47:31;3.80;35.50
67194;DHT22;54121;53.508;49.422;2022-11-15T06:49:58;4.00;36.40
67194;DHT22;54121;53.508;49.422;2022-11-15T06:52:24;4.10;35.10
67194;DHT22;54121;53.508;49.422;2022-11-15T06:54:51;4.00;35.90
67194;DHT22;54121;53.508;49.422;2022-11-15T06:57:17;4.10;35.10
67194;DHT22;54121;53.508;49.422;2022-11-15T06:59:44;4.40;33.40
67194;DHT22;54121;53.508;49.422;2022-11-15T07:02:13;4.60;33.30
67194;DHT22;54121;53.508;49.422;2022-11-15T07:04:40;4.60;31.60
67194;DHT22;54121;53.508;49.422;2022-11-15T07:07:07;4.40;31.80
67194;DHT22;54121;53.508;49.422;2022-11-15T07:09:33;4.20;31.50
67194;DHT22;54121;53.508;49.422;2022-11-15T07:12:00;4.20;33.10
67194;DHT22;54121;53.508;49.422;2022-11-15T07:14:26;4.30;31.00
67194;DHT22;54121;53.508;49.422;2022-11-15T07:16:53;4.50;31.10
67194;DHT22;54121;53.508;49.422;2022-11-15T07:19:19;4.50;30.90
67194;DHT22;54121;53.508;49.422;2022-11-15T07:21:46;4.40;30.40
67194;DHT22;54121;53.508;49.422;2022-11-15T07:24:13;4.30;31.50
67194;DHT22;54121;53.508;49.422;2022-11-15T07:26:39;4.40;30.80
67194;DHT22;54121;53.508;49.422;2022-11-15T07:29:06;4.40;31.10
67194;DHT22;54121;53.508;49.422;2022-11-15T07:31:32;4.00;32.10
67194;DHT22;54121;53.508;49.422;2022-11-15T07:33:59;4.50;32.20
67194;DHT22;54121;53.508;49.422;2022-11-15T07:36:25;4.50;31.00
67194;DHT22;54121;53.508;49.422;2022-11-15T07:38:52;4.40;32.20
67194;DHT22;54121;53.508;49.422;2022-11-15T07:41:19;4.40;31.80
67194;DHT22;54121;53.508;49.422;2022-11-15T07:43:45;4.10;31.70
67194;DHT22;54121;53.508;49.422;2022-11-15T07:46:12;4.20;32.70
67194;DHT22;54121;53.508;49.422;2022-11-15T07:48:39;4.40;31.90
67194;DHT22;54121;53.508;49.422;2022-11-15T07:51:07;4.30;32.50
67194;DHT22;54121;53.508;49.422;2022-11-15T07:53:33;4.30;32.00
67194;DHT22;54121;53.508;49.422;2022-11-15T07:56:00;4.10;32.50
67194;DHT22;54121;53.508;49.422;2022-11-15T07:58:26;4.10;32.00
67194;DHT22;54121;53.508;49.422;2022-11-15T08:00:53;4.10;32.30
67194;DHT22;54121;53.508;49.422;2022-11-15T08:03:19;4.50;31.10
67194;DHT22;54121;53.508;49.422;2022-11-15T08:05:50;4.50;30.80
67194;DHT22;54121;53.508;49.422;2022-11-15T08:08:17;4.30;31.30
67194;DHT22;54121;53.508;49.422;2022-11-15T08:10:44;4.00;31.50
67194;DHT22;54121;53.508;49.422;2022-11-15T08:13:12;4.20;32.50
67194;DHT22;54121;53.508;49.422;2022-11-15T08:15:38;4.30;31.60
67194;DHT22;54121;53.508;49.422;2022-11-15T08:18:13;4.30;30.90
67194;DHT22;54121;53.508;49.422;2022-11-15T08:20:41;4.50;31.50
67194;DHT22;54121;53.508;49.422;2022-11-15T08:23:09;4.60;31.60
67194;DHT22;54121;53.508;49.422;2022-11-15T08:25:36;4.30;31.90
67194;DHT22;54121;53.508;49.422;2022-11-15T08:28:05;4.40;32.30
67194;DHT22;54121;53.508;49.422;2022-11-15T08:30:36;4.20;32.80
67194;DHT22;54121;53.508;49.422;2022-11-15T08:33:04;4.40;33.00
67194;DHT22;54121;53.508;49.422;2022-11-15T08:35:31;4.30;32.80
67194;DHT22;54121;53.508;49.422;2022-11-15T08:37:57;4.50;32.90
67194;DHT22;54121;53.508;49.422;2022-11-15T08:40:24;4.30;33.30
67194;DHT22;54121;53.508;49.422;2022-11-15T08:42:50;4.50;33.20
67194;DHT22;54121;53.508;49.422;2022-11-15T08:45:17;4.40;33.00
67194;DHT22;54121;53.508;49.422;2022-11-15T08:47:43;4.40;33.00
67194;DHT22;54121;53.508;49.422;2022-11-15T08:50:10;4.40;32.30
67194;DHT22;54121;53.508;49.422;2022-11-15T08:52:36;4.30;33.00
67194;DHT22;54121;53.508;49.422;2022-11-15T08:55:03;4.40;32.60
67194;DHT22;54121;53.508;49.422;2022-11-15T08:57:30;4.40;32.60
67194;DHT22;54121;53.508;49.422;2022-11-15T08:59:57;4.30;32.70
67194;DHT22;54121;53.508;49.422;2022-11-15T09:02:24;4.30;32.50
67194;DHT22;54121;53.508;49.422;2022-11-15T09:04:50;4.20;33.00
67194;DHT22;54121;53.508;49.422;2022-11-15T09:07:17;4.10;34.00
67194;DHT22;54121;53.508;49.422;2022-11-15T09:09:44;3.90;35.10
67194;DHT22;54121;53.508;49.422;2022-11-15T09:12:10;4.10;34.20
67194;DHT22;54121;53.508;49.422;2022-11-15T09:14:37;4.10;33.90
67194;DHT22;54121;53.508;49.422;2022-11-15T09:17:03;4.20;33.60
67194;DHT22;54121;53.508;49.422;2022-11-15T09:19:33;4.30;34.00
67194;DHT22;54121;53.508;49.422;2022-11-15T09:21:59;4.40;34.00
67194;DHT22;54121;53.508;49.422;2022-11-15T09:24:26;4.40;34.60
67194;DHT22;54121;53.508;49.422;2022-11-15T09:26:52;4.10;35.20
67194;DHT22;54121;53.508;49.422;2022-11-15T09:29:19;4.20;36.30
67194;DHT22;54121;53.508;49.422;2022-11-15T09:31:45;3.90;35.90
67194;DHT22;54121;53.508;49.422;2022-11-15T09:34:12;3.80;36.60
67194;DHT22;54121;53.508;49.422;2022-11-15T09:36:38;3.80;36.70
67194;DHT22;54121;53.508;49.422;2022-11-15T09:39:05;3.90;36.30
67194;DHT22;54121;53.508;49.422;2022-11-15T09:49:10;3.90;35.40
67194;DHT22;54121;53.508;49.422;2022-11-15T09:51:40;3.80;35.50
67194;DHT22;54121;53.508;49.422;2022-11-15T09:54:35;3.70;35.30
67194;DHT22;54121;53.508;49.422;2022-11-15T09:57:15;3.90;35.90
67194;DHT22;54121;53.508;49.422;2022-11-15T10:05:21;4.50;34.30
67194;DHT22;54121;53.508;49.422;2022-11-15T10:12:57;4.40;33.80
67194;DHT22;54121;53.508;49.422;2022-11-15T10:15:24;4.40;34.30
67194;DHT22;54121;53.508;49.422;2022-11-15T10:20:54;4.10;34.20
67194;DHT22;54121;53.508;49.422;2022-11-15T10:23:22;4.20;34.90
67194;DHT22;54121;53.508;49.422;2022-11-15T10:25:55;4.40;34.50
67194;DHT22;54121;53.508;49.422;2022-11-15T10:28:30;4.40;35.20
67194;DHT22;54121;53.508;49.422;2022-11-15T10:30:59;4.20;34.70
67194;DHT22;54121;53.508;49.422;2022-11-15T10:33:49;4.30;34.10
67194;DHT22;54121;53.508;49.422;2022-11-15T10:36:18;4.60;34.20
67194;DHT22;54121;53.508;49.422;2022-11-15T10:46:38;4.20;34.60
67194;DHT22;54121;53.508;49.422;2022-11-15T10:49:23;4.20;36.10
67194;DHT22;54121;53.508;49.422;2022-11-15T10:51:55;4.30;35.60
67194;DHT22;54121;53.508;49.422;2022-11-15T10:54:27;4.30;35.20
67194;DHT22;54121;53.508;49.422;2022-11-15T10:56:57;4.20;35.80
67194;DHT22;54121;53.508;49.422;2022-11-15T10:59:28;4.30;34.90
67194;DHT22;54121;53.508;49.422;2022-11-15T11:01:56;4.10;35.40
67194;DHT22;54121;53.508;49.422;2022-11-15T11:04:22;4.20;36.40
67194;DHT22;54121;53.508;49.422;2022-11-15T11:06:55;4.00;35.40
67194;DHT22;54121;53.508;49.422;2022-11-15T11:09:34;4.20;37.50
67194;DHT22;54121;53.508;49.422;2022-11-15T11:12:03;4.20;36.30
67194;DHT22;54121;53.508;49.422;2022-11-15T11:14:34;4.30;36.10
67194;DHT22;54121;53.508;49.422;2022-11-15T11:25:47;4.00;35.80
67194;DHT22;54121;53.508;49.422;2022-11-15T11:31:13;4.20;36.10
67194;DHT22;54121;53.508;49.422;2022-11-15T11:37:21;4.20;35.60
67194;DHT22;54121;53.508;49.422;2022-11-15T11:42:14;4.10;35.20
67194;DHT22;54121;53.508;49.422;2022-11-15T11:47:24;4.00;35.10
67194;DHT22;54121;53.508;49.422;2022-11-15T11:50:27;3.80;35.10
67194;DHT22;54121;53.508;49.422;2022-11-15T11:53:14;3.80;36.20
67194;DHT22;54121;53.508;49.422;2022-11-15T11:55:53;3.60;35.30
67194;DHT22;54121;53.508;49.422;2022-11-15T11:58:40;3.80;35.70
67194;DHT22;54121;53.508;49.422;2022-11-15T12:01:24;3.90;34.90
67194;DHT22;54121;53.508;49.422;2022-11-15T12:04:11;3.80;35.70
67194;DHT22;54121;53.508;49.422;2022-11-15T12:06:49;3.70;36.50
67194;DHT22;54121;53.508;49.422;2022-11-15T12:12:15;3.70;36.60
67194;DHT22;54121;53.508;49.422;2022-11-15T12:17:25;3.80;35.30
67194;DHT22;54121;53.508;49.422;2022-11-15T12:19:56;4.50;37.10
67194;DHT22;54121;53.508;49.422;2022-11-15T12:25:50;3.50;36.90
67194;DHT22;54121;53.508;49.422;2022-11-15T12:31:17;3.40;36.20
67194;DHT22;54121;53.508;49.422;2022-11-15T12:33:47;3.50;35.70
67194;DHT22;54121;53.508;49.422;2022-11-15T12:38:54;3.70;36.50
67194;DHT22;54121;53.508;49.422;2022-11-15T12:41:26;3.70;35.80
67194;DHT22;54121;53.508;49.422;2022-11-15T12:43:54;3.50;35.60
67194;DHT22;54121;53.508;49.422;2022-11-15T12:48:57;3.30;37.60
67194;DHT22;54121;53.508;49.422;2022-11-15T12:59:48;3.90;36.10
67194;DHT22;54121;53.508;49.422;2022-11-15T13:02:26;4.00;36.10
67194;DHT22;54121;53.508;49.422;2022-11-15T13:13:06;3.20;38.30
67194;DHT22;54121;53.508;49.422;2022-11-15T13:15:54;2.70;39.00
67194;DHT22;54121;53.508;49.422;2022-11-15T13:20:51;2.50;41.70
67194;DHT22;54121;53.508;49.422;2022-11-15T13:23:18;2.30;41.30
67194;DHT22;54121;53.508;49.422;2022-11-15T13:25:48;2.30;42.30
67194;DHT22;54121;53.508;49.422;2022-11-15T13:30:53;1.90;42.80
67194;DHT22;54121;53.508;49.422;2022-11-15T13:33:25;1.90;43.30
67194;DHT22;54121;53.508;49.422;2022-11-15T13:36:34;1.80;44.60
67194;DHT22;54121;53.508;49.422;2022-11-15T13:39:12;1.90;44.50
67194;DHT22;54121;53.508;49.422;2022-11-15T13:41:51;1.80;44.50
67194;DHT22;54121;53.508;49.422;2022-11-15T13:45:00;1.40;44.90
67194;DHT22;54121;53.508;49.422;2022-11-15T13:47:28;1.20;46.80
67194;DHT22;54121;53.508;49.422;2022-11-15T13:49:58;1.00;47.10
67194;DHT22;54121;53.508;49.422;2022-11-15T13:52:33;1.00;47.80
67194;DHT22;54121;53.508;49.422;2022-11-15T13:55:13;0.90;47.70
67194;DHT22;54121;53.508;49.422;2022-11-15T13:57:53;1.20;47.80
67194;DHT22;54121;53.508;49.422;2022-11-15T14:00:38;1.30;47.40
67194;DHT22;54121;53.508;49.422;2022-11-15T14:03:30;1.40;49.10
67194;DHT22;54121;53.508;49.422;2022-11-15T14:08:30;1.10;52.90
67194;DHT22;54121;53.508;49.422;2022-11-15T14:11:16;1.20;54.10
67194;DHT22;54121;53.508;49.422;2022-11-15T14:16:36;1.40;54.70
67194;DHT22;54121;53.508;49.422;2022-11-15T14:19:04;1.30;55.70
67194;DHT22;54121;53.508;49.422;2022-11-15T14:21:31;1.20;56.50
67194;DHT22;54121;53.508;49.422;2022-11-15T14:24:21;1.00;56.90
67194;DHT22;54121;53.508;49.422;2022-11-15T14:26:48;1.20;56.70
67194;DHT22;54121;53.508;49.422;2022-11-15T14:29:28;1.20;56.60
67194;DHT22;54121;53.508;49.422;2022-11-15T14:32:16;1.20;56.40
67194;DHT22;54121;53.508;49.422;2022-11-15T14:34:44;0.90;56.90
67194;DHT22;54121;53.508;49.422;2022-11-15T14:39:50;0.80;57.80
67194;DHT22;54121;53.508;49.422;2022-11-15T14:42:17;0.70;57.70
67194;DHT22;54121;53.508;49.422;2022-11-15T14:44:44;0.70;58.90
67194;DHT22;54121;53.508;49.422;2022-11-15T14:47:11;0.70;57.70
67194;DHT22;54121;53.508;49.422;2022-11-15T14:49:37;0.80;59.10
67194;DHT22;54121;53.508;49.422;2022-11-15T14:52:23;0.80;57.30
67194;DHT22;54121;53.508;49.422;2022-11-15T14:54:51;0.60;58.30
67194;DHT22;54121;53.508;49.422;2022-11-15T14:57:17;0.50;58.90
67194;DHT22;54121;53.508;49.422;2022-11-15T14:59:44;0.50;58.60
67194;DHT22;54121;53.508;49.422;2022-11-15T15:02:21;0.40;59.40
67194;DHT22;54121;53.508;49.422;2022-11-15T15:04:48;0.30;59.50
67194;DHT22;54121;53.508;49.422;2022-11-15T15:07:16;0.30;59.60
67194;DHT22;54121;53.508;49.422;2022-11-15T15:09:44;0.30;59.50
67194;DHT22;54121;53.508;49.422;2022-11-15T15:12:19;0.30;59.00
67194;DHT22;54121;53.508;49.422;2022-11-15T15:14:47;0.40;58.40
67194;DHT22;54121;53.508;49.422;2022-11-15T15:17:15;0.40;58.90
67194;DHT22;54121;53.508;49.422;2022-11-15T15:19:41;0.40;57.50
67194;DHT22;54121;53.508;49.422;2022-11-15T15:22:19;0.40;58.30
67194;DHT22;54121;53.508;49.422;2022-11-15T15:24:47;0.40;59.00
67194;DHT22;54121;53.508;49.422;2022-11-15T15:27:14;0.30;57.60
67194;DHT22;54121;53.508;49.422;2022-11-15T15:29:41;0.30;57.50
67194;DHT22;54121;53.508;49.422;2022-11-15T15:32:08;0.20;57.30
67194;DHT22;54121;53.508;49.422;2022-11-15T15:34:35;0.20;58.50
67194;DHT22;54121;53.508;49.422;2022-11-15T15:39:52;0.40;55.20
67194;DHT22;54121;53.508;49.422;2022-11-15T15:42:19;0.40;54.70
67194;DHT22;54121;53.508;49.422;2022-11-15T15:44:47;0.30;54.00
67194;DHT22;54121;53.508;49.422;2022-11-15T15:47:19;0.50;53.60
67194;DHT22;54121;53.508;49.422;2022-11-15T15:49:47;0.40;52.70
67194;DHT22;54121;53.508;49.422;2022-11-15T15:52:13;0.30;53.20
67194;DHT22;54121;53.508;49.422;2022-11-15T15:54:40;0.30;52.20
67194;DHT22;54121;53.508;49.422;2022-11-15T15:57:08;0.30;51.30
67194;DHT22;54121;53.508;49.422;2022-11-15T15:59:37;0.20;50.10
67194;DHT22;54121;53.508;49.422;2022-11-15T16:02:03;0.10;50.00
67194;DHT22;54121;53.508;49.422;2022-11-15T16:04:30;0.20;49.50
67194;DHT22;54121;53.508;49.422;2022-11-15T16:07:00;1.40;50.10
67194;DHT22;54121;53.508;49.422;2022-11-15T16:09:27;0.40;48.60
67194;DHT22;54121;53.508;49.422;2022-11-15T16:12:12;0.30;47.40
67194;DHT22;54121;53.508;49.422;2022-11-15T16:14:38;0.30;48.00
67194;DHT22;54121;53.508;49.422;2022-11-15T16:17:05;0.30;47.90
67194;DHT22;54121;53.508;49.422;2022-11-15T16:19:32;0.20;47.60
67194;DHT22;54121;53.508;49.422;2022-11-15T16:21:59;0.20;47.20
67194;DHT22;54121;53.508;49.422;2022-11-15T16:24:26;0.20;47.00
67194;DHT22;54121;53.508;49.422;2022-11-15T16:26:52;0.10;47.30
67194;DHT22;54121;53.508;49.422;2022-11-15T16:29:19;0.10;47.40
67194;DHT22;54121;53.508;49.422;2022-11-15T16:31:45;0.10;48.10
67194;DHT22;54121;53.508;49.422;2022-11-15T16:34:12;0.10;47.70
67194;DHT22;54121;53.508;49.422;2022-11-15T16:36:38;0.00;49.00
67194;DHT22;54121;53.508;49.422;2022-11-15T16:39:05;0.10;48.20
67194;DHT22;54121;53.508;49.422;2022-11-15T16:41:32;0.00;48.40
67194;DHT22;54121;53.508;49.422;2022-11-15T16:43:59;0.00;49.00
67194;DHT22;54121;53.508;49.422;2022-11-15T16:46:26;0.00;49.50
67194;DHT22;54121;53.508;49.422;2022-11-15T16:48:54;0.10;48.90
67194;DHT22;54121;53.508;49.422;2022-11-15T16:51:21;0.00;48.70
67194;DHT22;54121;53.508;49.422;2022-11-15T16:53:48;0.00;49.00
67194;DHT22;54121;53.508;49.422;2022-11-15T16:56:25;0.00;48.90
67194;DHT22;54121;53.508;49.422;2022-11-15T16:58:56;0.10;49.00
67194;DHT22;54121;53.508;49.422;2022-11-15T17:01:36;0.00;49.50
67194;DHT22;54121;53.508;49.422;2022-11-15T17:04:12;0.00;49.60
67194;DHT22;54121;53.508;49.422;2022-11-15T17:06:39;0.10;50.30
67194;DHT22;54121;53.508;49.422;2022-11-15T17:09:11;0.00;50.50
67194;DHT22;54121;53.508;49.422;2022-11-15T17:11:40;-0.10;50.70
67194;DHT22;54121;53.508;49.422;2022-11-15T17:14:06;-0.10;51.10
67194;DHT22;54121;53.508;49.422;2022-11-15T17:16:33;-0.10;50.70
67194;DHT22;54121;53.508;49.422;2022-11-15T17:19:01;-0.10;51.20
67194;DHT22;54121;53.508;49.422;2022-11-15T17:21:27;-0.10;51.90
67194;DHT22;54121;53.508;49.422;2022-11-15T17:23:54;-0.10;52.10
67194;DHT22;54121;53.508;49.422;2022-11-15T17:26:21;0.70;52.20
67194;DHT22;54121;53.508;49.422;2022-11-15T17:28:47;-0.10;51.30
67194;DHT22;54121;53.508;49.422;2022-11-15T17:31:14;-0.20;51.40
67194;DHT22;54121;53.508;49.422;2022-11-15T17:33:40;-0.30;51.70
67194;DHT22;54121;53.508;49.422;2022-11-15T17:36:09;-0.20;51.90
67194;DHT22;54121;53.508;49.422;2022-11-15T17:38:36;-0.30;52.30
67194;DHT22;54121;53.508;49.422;2022-11-15T17:41:13;-0.30;52.60
67194;DHT22;54121;53.508;49.422;2022-11-15T17:43:40;-0.30;52.20
67194;DHT22;54121;53.508;49.422;2022-11-15T17:46:10;-0.20;51.90
67194;DHT22;54121;53.508;49.422;2022-11-15T17:48:37;-0.30;52.70
67194;DHT22;54121;53.508;49.422;2022-11-15T17:51:07;-0.20;52.10
67194;DHT22;54121;53.508;49.422;2022-11-15T17:53:37;-0.30;51.80
67194;DHT22;54121;53.508;49.422;2022-11-15T17:56:27;-0.30;51.80